Time;durP1;ratioP1;P1;durP2;ratioP2;P2;SDS_P1;SDS_P2;PMS_P1;PMS_P2;Temp;Humidity;BMP_temperature;BMP_pressure;BME280_temperature;BME280_humidity;BME280_pressure;Samples;Min_cycle;Max_cycle;Signal;HPM_P1;HPM_P2
2021/05/28 00:00:33;;;;;;;12.00;7.22;;;9.90;99.90;;;;;;5032680;28;20029;-79
2021/05/28 00:02:59;;;;;;;13.93;7.10;;;9.90;99.90;;;;;;5033508;28;20037;-80
2021/05/28 00:05:25;;;;;;;12.50;7.28;;;9.60;99.90;;;;;;5034512;28;20029;-80
2021/05/28 00:07:50;;;;;;;17.95;8.20;;;9.50;99.90;;;;;;5033393;28;20482;-80
2021/05/28 00:10:16;;;;;;;15.52;7.88;;;9.50;99.90;;;;;;5032575;28;20478;-80
2021/05/28 00:12:42;;;;;;;17.08;7.90;;;9.40;99.90;;;;;;5032664;28;20516;-81
2021/05/28 00:15:10;;;;;;;14.00;7.47;;;9.40;99.90;;;;;;5032901;28;20033;-80
2021/05/28 00:17:36;;;;;;;15.82;7.85;;;9.30;99.90;;;;;;5034478;28;20065;-80
2021/05/28 00:20:03;;;;;;;15.48;7.97;;;9.30;99.90;;;;;;5033021;28;20561;-79
2021/05/28 00:22:29;;;;;;;14.55;7.78;;;9.30;99.90;;;;;;5031096;28;20025;-80
2021/05/28 00:24:54;;;;;;;12.75;7.85;;;9.40;99.90;;;;;;5014529;28;20022;-80
2021/05/28 00:27:20;;;;;;;11.18;7.90;;;9.40;99.90;;;;;;5013449;28;20033;-80
2021/05/28 00:29:46;;;;;;;13.35;8.18;;;9.50;99.90;;;;;;5014424;28;20029;-80
2021/05/28 00:32:11;;;;;;;15.65;8.80;;;9.60;99.90;;;;;;5014943;28;20093;-80
2021/05/28 00:34:37;;;;;;;15.75;8.43;;;9.60;99.90;;;;;;5028804;28;20053;-80
2021/05/28 00:37:02;;;;;;;11.02;8.05;;;9.60;99.90;;;;;;5032942;28;20059;-80
2021/05/28 00:39:28;;;;;;;17.90;8.10;;;9.50;99.90;;;;;;5033118;28;20581;-80
2021/05/28 00:41:54;;;;;;;15.68;8.90;;;9.40;99.90;;;;;;5033109;28;20046;-79
2021/05/28 00:44:23;;;;;;;14.82;8.43;;;9.40;99.90;;;;;;5033072;28;20033;-80
2021/05/28 00:46:49;;;;;;;15.57;8.27;;;9.50;99.90;;;;;;5032504;28;20030;-80
2021/05/28 00:49:15;;;;;;;16.10;9.18;;;9.30;99.90;;;;;;5036217;28;20474;-80
2021/05/28 00:51:41;;;;;;;17.98;9.25;;;9.40;99.90;;;;;;5036424;28;20049;-80
2021/05/28 00:54:08;;;;;;;17.85;9.00;;;9.30;99.90;;;;;;5036386;28;20026;-80
2021/05/28 00:56:34;;;;;;;14.57;9.00;;;9.20;99.90;;;;;;5036130;28;20029;-79
2021/05/28 00:59:02;;;;;;;16.67;8.95;;;9.10;99.90;;;;;;5036531;28;20425;-79
2021/05/28 01:01:27;;;;;;;15.38;9.00;;;9.00;99.90;;;;;;5036069;28;20160;-80
2021/05/28 01:03:53;;;;;;;18.75;9.98;;;9.10;99.90;;;;;;5036989;28;20029;-80
2021/05/28 01:06:19;;;;;;;20.40;10.13;;;9.10;99.90;;;;;;5036460;28;20033;-80
2021/05/28 01:08:45;;;;;;;19.50;12.38;;;9.10;99.90;;;;;;5036221;28;20033;-80
2021/05/28 01:11:11;;;;;;;25.17;12.35;;;9.20;99.90;;;;;;5037627;28;20491;-80
2021/05/28 01:13:36;;;;;;;21.75;12.02;;;9.20;99.90;;;;;;5036393;28;20022;-80
2021/05/28 01:16:02;;;;;;;20.65;12.55;;;9.40;99.90;;;;;;5036504;28;20032;-80
2021/05/28 01:18:28;;;;;;;21.45;12.20;;;9.40;99.90;;;;;;5036611;28;20068;-80
2021/05/28 01:20:54;;;;;;;22.05;11.95;;;9.30;99.90;;;;;;5037303;28;20025;-80
2021/05/28 01:23:20;;;;;;;25.98;12.95;;;9.30;99.90;;;;;;5035746;28;20029;-80
2021/05/28 01:25:46;;;;;;;27.05;13.55;;;9.30;99.90;;;;;;5035971;28;20026;-80
2021/05/28 01:28:12;;;;;;;23.25;12.98;;;9.40;99.90;;;;;;5037393;28;20128;-80
2021/05/28 01:30:37;;;;;;;20.90;12.82;;;9.40;99.90;;;;;;5035784;28;20030;-80
2021/05/28 01:33:04;;;;;;;18.55;11.73;;;9.40;99.90;;;;;;5035988;28;20041;-80
2021/05/28 01:35:29;;;;;;;19.55;11.77;;;9.40;99.90;;;;;;5035439;28;20026;-79
2021/05/28 01:37:55;;;;;;;20.15;12.93;;;9.30;99.90;;;;;;5035060;28;20033;-80
2021/05/28 01:40:21;;;;;;;24.92;13.35;;;9.30;99.90;;;;;;5035243;28;20042;-80
2021/05/28 01:42:48;;;;;;;21.48;12.48;;;9.30;99.90;;;;;;5035270;28;20049;-80
2021/05/28 01:45:14;;;;;;;17.60;11.55;;;9.30;99.90;;;;;;5035193;28;20036;-80
2021/05/28 01:47:40;;;;;;;21.15;12.20;;;9.20;99.90;;;;;;5036745;28;20114;-80
2021/05/28 01:50:09;;;;;;;23.35;11.93;;;9.10;99.90;;;;;;5035390;28;20029;-80
2021/05/28 01:52:34;;;;;;;23.40;13.48;;;9.10;99.90;;;;;;5035243;28;20032;-80
2021/05/28 01:55:00;;;;;;;19.70;11.75;;;9.10;99.90;;;;;;5035364;28;20116;-79
2021/05/28 01:57:26;;;;;;;21.17;12.15;;;9.00;99.90;;;;;;5034994;28;20064;-80
2021/05/28 01:59:51;;;;;;;20.95;12.40;;;9.00;99.90;;;;;;5034652;28;20639;-80
2021/05/28 02:02:17;;;;;;;19.23;12.18;;;9.00;99.90;;;;;;5035054;28;20033;-80
2021/05/28 02:04:43;;;;;;;25.38;13.85;;;8.90;99.90;;;;;;5035439;28;20075;-80
2021/05/28 02:07:10;;;;;;;27.08;13.50;;;9.00;99.90;;;;;;5035458;28;20025;-79
2021/05/28 02:09:35;;;;;;;24.80;12.85;;;8.90;99.90;;;;;;5036032;28;20033;-80
2021/05/28 02:12:01;;;;;;;27.45;14.15;;;8.90;99.90;;;;;;5034618;28;20025;-80
2021/05/28 02:14:28;;;;;;;24.45;13.82;;;8.90;99.90;;;;;;5035233;28;20029;-79
2021/05/28 02:16:55;;;;;;;24.23;14.48;;;8.90;99.90;;;;;;5034941;28;20087;-81
2021/05/28 02:19:21;;;;;;;24.17;14.38;;;8.90;99.90;;;;;;5035754;28;20053;-80
2021/05/28 02:21:50;;;;;;;26.77;14.75;;;8.90;99.90;;;;;;5034977;28;20026;-80
2021/05/28 02:24:17;;;;;;;23.35;13.90;;;8.90;99.90;;;;;;5036261;28;20029;-80
2021/05/28 02:26:46;;;;;;;25.10;14.88;;;8.90;99.90;;;;;;5035163;28;20048;-80
2021/05/28 02:29:15;;;;;;;26.08;14.40;;;8.90;99.90;;;;;;5035931;28;20469;-80
2021/05/28 02:31:41;;;;;;;21.40;14.65;;;8.90;99.90;;;;;;5036857;28;20056;-80
2021/05/28 02:34:07;;;;;;;27.23;14.77;;;8.90;99.90;;;;;;5051533;28;20037;-80
2021/05/28 02:36:34;;;;;;;25.17;15.82;;;8.80;99.90;;;;;;5044851;28;20018;-80
2021/05/28 02:38:59;;;;;;;29.50;17.70;;;8.80;99.90;;;;;;5034808;28;20530;-80
2021/05/28 02:41:25;;;;;;;23.77;13.48;;;8.90;99.90;;;;;;5034385;28;20052;-80
2021/05/28 02:43:51;;;;;;;21.35;13.95;;;8.70;99.90;;;;;;5034455;28;20040;-80
2021/05/28 02:46:17;;;;;;;21.30;14.05;;;8.50;99.90;;;;;;5035914;28;20017;-80
2021/05/28 02:48:42;;;;;;;25.77;15.52;;;8.50;99.90;;;;;;5034934;28;20160;-80
2021/05/28 02:51:08;;;;;;;26.88;15.38;;;8.50;99.90;;;;;;5034705;28;20116;-80
2021/05/28 02:53:34;;;;;;;25.83;15.23;;;8.50;99.90;;;;;;5034534;28;20022;-80
2021/05/28 02:56:05;;;;;;;23.75;16.77;;;8.60;99.90;;;;;;5034335;28;20021;-80
2021/05/28 02:58:31;;;;;;;25.90;17.38;;;8.70;99.90;;;;;;5034554;28;20442;-80
2021/05/28 03:00:57;;;;;;;27.17;18.05;;;8.60;99.90;;;;;;5034373;28;20501;-80
2021/05/28 03:03:23;;;;;;;25.17;16.23;;;8.70;99.90;;;;;;5034321;28;20029;-81
2021/05/28 03:05:51;;;;;;;20.90;15.07;;;8.70;99.90;;;;;;5034192;28;20571;-80
2021/05/28 03:08:18;;;;;;;26.80;16.35;;;8.40;99.90;;;;;;5035433;28;20029;-80
2021/05/28 03:10:44;;;;;;;23.92;17.33;;;8.40;99.90;;;;;;5034024;28;20026;-80
2021/05/28 03:13:09;;;;;;;33.08;19.00;;;8.50;99.90;;;;;;5031817;28;20099;-80
2021/05/28 03:15:35;;;;;;;27.50;17.48;;;8.60;99.90;;;;;;5033206;28;20045;-80
2021/05/28 03:18:02;;;;;;;25.30;16.45;;;8.50;99.90;;;;;;5032421;28;20017;-80
2021/05/28 03:20:35;;;;;;;25.83;15.80;;;8.50;99.90;;;;;;5032206;28;20033;-80
2021/05/28 03:23:03;;;;;;;24.58;15.88;;;8.40;99.90;;;;;;5032692;28;20071;-80
2021/05/28 03:25:29;;;;;;;22.75;17.30;;;8.30;99.90;;;;;;5032239;28;20424;-80
2021/05/28 03:27:54;;;;;;;24.98;15.73;;;8.40;99.90;;;;;;5032724;28;20083;-80
2021/05/28 03:30:20;;;;;;;27.58;16.63;;;8.30;99.90;;;;;;5033641;28;20103;-80
2021/05/28 03:32:46;;;;;;;23.50;16.25;;;8.20;99.90;;;;;;5033835;28;20390;-80
2021/05/28 03:35:12;;;;;;;28.00;15.75;;;8.30;99.90;;;;;;5033026;28;20028;-80
2021/05/28 03:37:39;;;;;;;31.38;17.65;;;8.40;99.90;;;;;;5032990;28;20457;-80
2021/05/28 03:40:06;;;;;;;31.90;17.50;;;8.50;99.90;;;;;;5033060;28;20387;-80
2021/05/28 03:42:31;;;;;;;25.27;17.92;;;8.40;99.90;;;;;;5032710;28;20482;-80
2021/05/28 03:44:57;;;;;;;30.52;17.90;;;8.50;99.90;;;;;;5033279;28;20125;-80
2021/05/28 03:47:22;;;;;;;24.65;17.42;;;8.60;99.90;;;;;;5033268;28;20387;-80
2021/05/28 03:49:48;;;;;;;28.58;17.75;;;8.70;99.90;;;;;;5033298;28;20057;-80
2021/05/28 03:52:14;;;;;;;25.20;17.30;;;8.60;99.90;;;;;;5033433;28;20034;-80
2021/05/28 03:54:40;;;;;;;29.20;20.55;;;8.60;99.90;;;;;;5034429;28;20020;-80
2021/05/28 03:57:06;;;;;;;31.00;19.65;;;8.60;99.90;;;;;;5032732;28;20032;-80
2021/05/28 03:59:33;;;;;;;29.13;18.77;;;8.60;99.90;;;;;;5034489;28;20025;-80
2021/05/28 04:01:58;;;;;;;24.20;16.25;;;8.40;99.90;;;;;;5032708;28;20084;-80
2021/05/28 04:04:24;;;;;;;23.65;17.20;;;8.30;99.90;;;;;;5033156;28;20021;-80
2021/05/28 04:06:50;;;;;;;23.73;16.70;;;8.20;99.90;;;;;;5033151;28;20026;-80
2021/05/28 04:09:15;;;;;;;23.80;16.65;;;8.20;99.90;;;;;;5032916;28;20061;-80
2021/05/28 04:11:41;;;;;;;22.77;16.83;;;8.20;99.90;;;;;;5033123;28;20022;-80
2021/05/28 04:14:07;;;;;;;27.08;17.92;;;8.40;99.90;;;;;;5032798;28;20022;-80
2021/05/28 04:16:33;;;;;;;29.38;18.88;;;8.50;99.90;;;;;;5033221;28;20075;-80
2021/05/28 04:18:58;;;;;;;28.55;20.30;;;8.60;99.90;;;;;;5032234;28;20033;-80
2021/05/28 04:21:24;;;;;;;33.53;20.13;;;8.80;99.90;;;;;;5033540;28;20021;-81
2021/05/28 04:23:49;;;;;;;30.65;20.52;;;8.70;99.90;;;;;;5033852;28;20033;-80
2021/05/28 04:26:15;;;;;;;35.78;21.65;;;8.80;99.90;;;;;;5016504;28;20349;-80
2021/05/28 04:28:41;;;;;;;33.15;21.55;;;8.90;99.90;;;;;;5016495;28;20061;-80
2021/05/28 04:31:06;;;;;;;38.58;21.48;;;9.00;99.90;;;;;;5016546;28;20108;-80
2021/05/28 04:33:32;;;;;;;33.70;21.70;;;9.10;99.90;;;;;;5027769;28;20394;-80
2021/05/28 04:35:57;;;;;;;37.42;25.17;;;9.30;99.90;;;;;;5035556;28;20390;-80
2021/05/28 04:38:23;;;;;;;30.35;20.30;;;9.20;99.90;;;;;;5036248;28;20116;-80
2021/05/28 04:40:51;;;;;;;34.83;21.70;;;9.10;99.90;;;;;;5036112;28;20084;-80
2021/05/28 04:43:16;;;;;;;42.38;23.08;;;9.10;99.90;;;;;;5037058;28;20017;-80
2021/05/28 04:45:42;;;;;;;37.75;23.40;;;9.10;99.90;;;;;;5037154;28;20075;-81
2021/05/28 04:48:08;;;;;;;37.35;23.13;;;9.20;99.90;;;;;;5036247;28;20466;-80
2021/05/28 04:50:36;;;;;;;36.15;23.73;;;9.30;99.90;;;;;;5037054;28;20037;-80
2021/05/28 04:53:04;;;;;;;47.30;26.23;;;9.30;99.90;;;;;;5035214;28;20018;-80
2021/05/28 04:55:30;;;;;;;45.28;28.10;;;9.50;99.90;;;;;;5036697;28;20519;-80
2021/05/28 04:57:56;;;;;;;48.13;28.20;;;9.90;99.90;;;;;;5036776;28;20113;-81
2021/05/28 05:00:23;;;;;;;43.40;28.20;;;9.90;99.90;;;;;;5036344;28;20033;-80
2021/05/28 05:02:49;;;;;;;46.22;27.88;;;10.00;99.90;;;;;;5037728;28;20116;-80
2021/05/28 05:05:16;;;;;;;44.88;26.88;;;9.90;99.90;;;;;;5036769;28;20026;-80
2021/05/28 05:07:42;;;;;;;49.55;27.25;;;9.80;99.90;;;;;;5037061;28;20040;-80
2021/05/28 05:10:10;;;;;;;41.22;26.33;;;9.70;99.90;;;;;;5037765;28;20052;-81
2021/05/28 05:12:35;;;;;;;41.38;26.33;;;9.80;99.90;;;;;;5037812;28;20044;-80
2021/05/28 05:15:01;;;;;;;42.47;24.95;;;9.80;99.90;;;;;;5038338;28;20021;-81
2021/05/28 05:17:27;;;;;;;40.75;26.52;;;9.60;99.90;;;;;;5038147;28;20026;-80
2021/05/28 05:19:53;;;;;;;44.97;26.73;;;9.60;99.90;;;;;;5037679;28;20048;-80
2021/05/28 05:22:18;;;;;;;55.38;29.77;;;9.90;99.90;;;;;;5036244;28;20384;-80
2021/05/28 05:24:44;;;;;;;53.25;28.92;;;10.20;99.90;;;;;;5018865;28;20140;-82
2021/05/28 05:27:09;;;;;;;43.55;28.27;;;10.30;99.90;;;;;;5029996;28;20029;-80
2021/05/28 05:29:35;;;;;;;45.20;27.00;;;10.30;99.90;;;;;;5040006;28;20039;-80
2021/05/28 05:32:01;;;;;;;40.65;26.00;;;10.30;99.90;;;;;;5039024;28;20045;-80
2021/05/28 05:34:27;;;;;;;36.95;24.77;;;10.20;99.90;;;;;;5039191;28;20517;-80
2021/05/28 05:36:53;;;;;;;39.70;26.02;;;10.20;99.90;;;;;;5038652;28;20072;-80
2021/05/28 05:39:19;;;;;;;34.92;23.63;;;10.20;99.90;;;;;;5035952;28;20033;-80
2021/05/28 05:41:44;;;;;;;39.53;25.13;;;10.20;99.90;;;;;;5038953;28;20132;-82
2021/05/28 05:44:10;;;;;;;39.28;25.08;;;10.30;99.90;;;;;;5035895;28;20049;-80
2021/05/28 05:46:36;;;;;;;38.50;26.67;;;10.20;99.90;;;;;;5039325;28;20045;-80
2021/05/28 05:49:02;;;;;;;39.65;25.90;;;10.30;99.90;;;;;;5028036;28;20037;-81
2021/05/28 05:51:28;;;;;;;36.92;24.77;;;10.20;99.90;;;;;;5017524;28;20026;-80
2021/05/28 05:53:53;;;;;;;39.92;25.52;;;10.10;99.90;;;;;;5027267;28;20170;-81
2021/05/28 05:56:19;;;;;;;51.00;26.70;;;10.20;99.90;;;;;;5032204;28;20025;-81
2021/05/28 05:58:45;;;;;;;42.65;25.15;;;10.40;99.90;;;;;;5030325;28;20711;-81
2021/05/28 06:01:11;;;;;;;42.45;23.65;;;10.60;99.90;;;;;;5043822;28;20025;-84
2021/05/28 06:03:36;;;;;;;37.85;22.40;;;10.90;99.90;;;;;;5030208;28;20064;-81
2021/05/28 06:06:02;;;;;;;36.92;23.52;;;10.80;99.90;;;;;;5030424;28;20408;-81
2021/05/28 06:08:27;;;;;;;35.05;23.50;;;11.00;99.90;;;;;;5036596;28;20021;-81
2021/05/28 06:10:53;;;;;;;33.10;21.92;;;11.20;99.90;;;;;;5038072;28;20120;-82
2021/05/28 06:13:19;;;;;;;37.72;21.92;;;11.40;99.90;;;;;;5029922;28;20121;-81
2021/05/28 06:15:45;;;;;;;32.25;22.10;;;11.50;99.90;;;;;;5036277;28;20025;-84
2021/05/28 06:18:10;;;;;;;36.88;21.40;;;11.70;99.90;;;;;;5032562;28;20075;-84
2021/05/28 06:20:36;;;;;;;33.83;21.77;;;11.80;99.90;;;;;;5037018;28;20029;-83
2021/05/28 06:23:02;;;;;;;28.50;20.90;;;11.80;99.90;;;;;;5036869;28;20029;-84
2021/05/28 06:25:28;;;;;;;30.60;20.63;;;12.00;99.90;;;;;;5035657;28;20052;-84
2021/05/28 06:27:54;;;;;;;32.08;20.60;;;12.20;99.90;;;;;;5027354;28;20125;-84
2021/05/28 06:30:20;;;;;;;28.48;19.52;;;12.40;99.90;;;;;;5028734;28;20068;-84
2021/05/28 06:32:46;;;;;;;31.13;18.50;;;12.60;99.90;;;;;;5038414;28;20057;-85
2021/05/28 06:35:12;;;;;;;30.52;18.10;;;12.70;99.90;;;;;;5032782;28;20120;-82
2021/05/28 06:37:38;;;;;;;29.58;18.13;;;12.90;99.90;;;;;;5022622;28;20033;-81
2021/05/28 06:40:05;;;;;;;28.05;16.25;;;12.80;99.90;;;;;;5023258;28;20045;-81
2021/05/28 06:42:32;;;;;;;25.42;17.38;;;12.90;99.90;;;;;;5034570;28;20382;-81
2021/05/28 06:44:58;;;;;;;28.02;15.43;;;13.70;99.90;;;;;;5018107;28;20052;-81
2021/05/28 06:47:25;;;;;;;23.40;14.65;;;14.70;99.90;;;;;;5024288;28;20025;-81
2021/05/28 06:49:51;;;;;;;22.63;14.60;;;15.90;99.90;;;;;;5041780;28;20034;-81
2021/05/28 06:52:17;;;;;;;24.17;12.90;;;17.10;99.90;;;;;;5043235;28;20033;-81
2021/05/28 06:54:44;;;;;;;22.23;13.35;;;18.00;99.90;;;;;;5021556;28;20032;-79
2021/05/28 06:57:09;;;;;;;21.25;13.02;;;18.00;99.90;;;;;;5022956;28;20233;-79
2021/05/28 06:59:35;;;;;;;22.65;12.25;;;18.00;99.90;;;;;;5024957;28;20037;-81
2021/05/28 07:02:01;;;;;;;21.30;11.77;;;16.80;99.90;;;;;;5023763;28;20030;-81
2021/05/28 07:04:26;;;;;;;18.52;11.63;;;16.20;99.90;;;;;;5021307;28;20033;-80
2021/05/28 07:06:52;;;;;;;18.27;12.25;;;16.00;99.90;;;;;;5016828;28;20479;-80
2021/05/28 07:09:18;;;;;;;20.10;11.00;;;16.80;99.90;;;;;;5025497;28;20040;-80
2021/05/28 07:11:43;;;;;;;15.07;10.05;;;17.60;99.90;;;;;;5020007;28;20033;-80
2021/05/28 07:14:09;;;;;;;18.80;11.13;;;18.20;99.90;;;;;;5011449;28;20029;-80
2021/05/28 07:16:35;;;;;;;16.85;10.80;;;18.40;99.90;;;;;;5017770;28;20021;-80
2021/05/28 07:19:01;;;;;;;13.85;9.52;;;18.70;99.90;;;;;;5019485;28;20593;-80
2021/05/28 07:21:27;;;;;;;17.60;10.02;;;18.20;99.90;;;;;;5020793;28;20383;-81
2021/05/28 07:23:53;;;;;;;15.50;9.20;;;18.40;99.90;;;;;;5019510;28;20056;-80
2021/05/28 07:26:18;;;;;;;17.40;9.55;;;19.20;99.90;;;;;;5024159;28;20069;-80
2021/05/28 07:28:44;;;;;;;10.93;8.60;;;20.20;99.90;;;;;;5023982;28;20044;-80
2021/05/28 07:31:10;;;;;;;13.82;7.82;;;20.60;99.90;;;;;;5023426;28;20453;-80
2021/05/28 07:33:37;;;;;;;14.30;8.68;;;21.10;98.70;;;;;;5020254;28;20040;-80
2021/05/28 07:36:03;;;;;;;14.88;7.88;;;20.50;99.30;;;;;;5024383;28;20026;-81
2021/05/28 07:38:29;;;;;;;14.55;7.97;;;21.40;97.60;;;;;;5019639;28;20063;-80
2021/05/28 07:40:55;;;;;;;13.35;8.35;;;21.40;95.60;;;;;;5044530;28;20045;-80
2021/05/28 07:43:21;;;;;;;9.35;7.00;;;21.00;96.00;;;;;;5024774;28;20125;-80
2021/05/28 07:45:50;;;;;;;12.82;6.82;;;21.10;95.70;;;;;;5045005;28;20033;-80
2021/05/28 07:48:20;;;;;;;11.80;6.60;;;21.60;94.00;;;;;;5025178;28;20048;-81
2021/05/28 07:50:47;;;;;;;12.45;6.60;;;21.80;91.40;;;;;;5014817;28;20034;-81
2021/05/28 07:53:22;;;;;;;10.13;7.40;;;21.30;92.70;;;;;;5016522;28;20318;-81
2021/05/28 07:55:48;;;;;;;13.40;6.97;;;20.90;93.80;;;;;;5022605;28;20055;-81
2021/05/28 07:58:15;;;;;;;12.23;6.50;;;20.50;93.80;;;;;;5027770;28;20022;-81
2021/05/28 08:00:41;;;;;;;12.23;5.95;;;20.30;94.80;;;;;;5028657;28;20120;-81
2021/05/28 08:03:07;;;;;;;12.25;5.55;;;20.00;94.80;;;;;;5024575;28;20112;-80
2021/05/28 08:05:33;;;;;;;13.48;6.18;;;18.10;99.90;;;;;;5026487;28;20033;-81
2021/05/28 08:08:00;;;;;;;14.38;7.22;;;17.20;99.90;;;;;;5024288;28;20274;-80
2021/05/28 08:10:26;;;;;;;14.52;6.90;;;17.10;99.90;;;;;;5028656;28;20040;-80
2021/05/28 08:12:52;;;;;;;15.20;7.25;;;17.70;99.90;;;;;;5023972;28;20159;-84
2021/05/28 08:15:19;;;;;;;16.25;6.63;;;17.80;99.90;;;;;;5028879;28;20116;-84
2021/05/28 08:17:46;;;;;;;13.73;6.60;;;17.60;99.90;;;;;;5030555;28;20427;-84
2021/05/28 08:20:13;;;;;;;14.60;6.22;;;18.90;99.90;;;;;;5040391;28;20026;-84
2021/05/28 08:22:38;;;;;;;14.25;6.68;;;19.40;99.90;;;;;;5039728;28;20193;-84
2021/05/28 08:25:04;;;;;;;13.07;5.72;;;18.80;99.90;;;;;;5056337;28;20030;-85
2021/05/28 08:27:30;;;;;;;12.65;6.13;;;19.00;99.90;;;;;;5049593;28;20036;-85
2021/05/28 08:29:56;;;;;;;9.70;6.07;;;19.40;99.90;;;;;;5034405;28;20402;-81
2021/05/28 08:32:22;;;;;;;17.00;7.43;;;19.40;99.90;;;;;;5027397;28;20029;-80
2021/05/28 08:34:48;;;;;;;16.15;8.85;;;19.50;99.90;;;;;;5046978;28;20399;-80
2021/05/28 08:37:14;;;;;;;13.35;7.53;;;19.00;99.90;;;;;;5023024;28;20504;-80
2021/05/28 08:39:39;;;;;;;20.55;7.55;;;18.80;99.90;;;;;;5050961;28;20029;-80
2021/05/28 08:42:05;;;;;;;10.88;6.45;;;18.90;99.90;;;;;;5029199;28;20124;-80
2021/05/28 08:44:32;;;;;;;14.05;7.13;;;18.80;99.90;;;;;;5026551;28;20025;-82
2021/05/28 08:46:58;;;;;;;13.05;6.30;;;18.60;99.90;;;;;;5027157;28;20034;-80
2021/05/28 08:49:24;;;;;;;9.70;6.28;;;18.00;99.90;;;;;;5032519;28;20037;-87
2021/05/28 08:51:50;;;;;;;9.07;5.68;;;17.50;99.90;;;;;;5029890;28;20059;-80
2021/05/28 08:54:17;;;;;;;11.13;5.45;;;17.90;99.90;;;;;;5033422;28;20030;-80
2021/05/28 08:56:45;;;;;;;12.30;5.10;;;18.30;99.90;;;;;;5044273;28;20020;-80
2021/05/28 08:59:12;;;;;;;9.40;5.25;;;18.80;99.90;;;;;;5055431;28;20056;-80
2021/05/28 09:01:37;;;;;;;10.98;4.72;;;19.90;99.80;;;;;;5033123;28;20029;-80
2021/05/28 09:04:04;;;;;;;9.45;4.15;;;20.40;97.80;;;;;;5038712;28;20533;-80
2021/05/28 09:06:39;;;;;;;7.35;4.18;;;20.30;95.10;;;;;;5038031;28;20037;-81
2021/05/28 09:09:12;;;;;;;8.52;3.70;;;19.80;95.70;;;;;;5052706;28;20063;-81
2021/05/28 09:11:51;;;;;;;11.77;3.85;;;20.30;96.00;;;;;;5028196;28;20370;-80
2021/05/28 09:14:44;;;;;;;8.57;3.80;;;21.20;94.20;;;;;;5012031;28;20076;-81
2021/05/28 09:17:11;;;;;;;6.78;4.07;;;21.30;91.70;;;;;;5023716;28;20030;-81
2021/05/28 09:19:39;;;;;;;8.05;4.28;;;21.70;88.80;;;;;;5028860;28;20061;-81
2021/05/28 09:22:11;;;;;;;8.25;3.92;;;21.50;87.70;;;;;;5042029;28;20400;-80
2021/05/28 09:24:42;;;;;;;7.60;4.18;;;21.90;85.50;;;;;;5013458;28;20089;-81
2021/05/28 09:27:29;;;;;;;7.87;3.77;;;20.70;88.50;;;;;;5029602;28;20493;-81
2021/05/28 09:30:01;;;;;;;8.43;4.05;;;20.80;90.50;;;;;;5034754;28;20025;-81
2021/05/28 09:37:43;;;;;;;7.85;3.65;;;22.10;83.70;;;;;;5001281;28;20041;-59
2021/05/28 09:40:17;;;;;;;7.93;4.30;;;21.60;81.10;;;;;;5004964;28;20109;-61
2021/05/28 09:42:55;;;;;;;8.55;4.07;;;20.20;87.00;;;;;;5004781;28;20033;-61
2021/05/28 09:45:38;;;;;;;9.85;4.00;;;20.90;87.20;;;;;;5009492;28;20033;-61
2021/05/28 09:48:25;;;;;;;9.30;3.92;;;21.70;85.90;;;;;;5021071;28;20112;-61
2021/05/28 09:50:55;;;;;;;8.65;3.80;;;22.60;83.60;;;;;;5023615;28;20037;-61
2021/05/28 09:53:30;;;;;;;5.03;3.55;;;22.60;78.80;;;;;;5019655;28;20170;-62
2021/05/28 09:56:00;;;;;;;6.63;3.60;;;22.90;74.20;;;;;;5019604;28;20033;-65
2021/05/28 09:58:46;;;;;;;8.15;3.85;;;22.50;75.00;;;;;;5028283;28;20151;-61
2021/05/28 10:01:11;;;;;;;6.30;3.70;;;23.00;73.10;;;;;;5024828;28;20025;-61
2021/05/28 10:03:38;;;;;;;9.27;4.00;;;22.80;72.20;;;;;;5006231;28;20044;-61
2021/05/28 10:06:04;;;;;;;8.15;4.00;;;22.70;73.10;;;;;;5016240;28;20021;-61
2021/05/28 10:08:30;;;;;;;6.07;4.10;;;23.10;74.50;;;;;;5024076;28;20025;-61
2021/05/28 10:10:57;;;;;;;5.43;3.35;;;23.50;71.90;;;;;;5025876;28;20448;-61
2021/05/28 10:13:25;;;;;;;7.22;3.90;;;23.00;72.30;;;;;;5025882;28;20029;-61
2021/05/28 10:15:55;;;;;;;5.82;3.10;;;23.40;69.30;;;;;;5023317;28;20029;-61
2021/05/28 10:18:22;;;;;;;12.77;4.72;;;23.30;71.50;;;;;;5015555;28;20029;-62
2021/05/28 10:20:53;;;;;;;9.68;3.67;;;23.40;71.80;;;;;;5015501;28;20025;-61
2021/05/28 10:23:18;;;;;;;8.52;3.70;;;24.00;69.30;;;;;;5024969;28;20477;-61
2021/05/28 10:25:45;;;;;;;7.72;3.45;;;24.40;66.40;;;;;;5022060;28;20090;-62
2021/05/28 10:28:22;;;;;;;12.27;3.72;;;25.10;64.50;;;;;;5024788;28;20557;-61
2021/05/28 10:30:51;;;;;;;7.05;3.88;;;25.70;60.80;;;;;;5004837;28;20037;-61
2021/05/28 10:33:33;;;;;;;8.57;3.85;;;25.80;58.20;;;;;;5021361;28;20033;-61
2021/05/28 10:36:00;;;;;;;;;;;25.40;57.70;;;;;;5002536;28;20046;-62
2021/05/28 10:38:40;;;;;;;6.32;3.78;;;24.90;59.50;;;;;;5002979;28;19951;-62
2021/05/28 10:41:06;;;;;;;8.50;3.50;;;25.70;58.60;;;;;;5001963;28;20034;-61
2021/05/28 10:43:36;;;;;;;7.65;3.38;;;25.80;58.20;;;;;;5005306;28;20092;-62
2021/05/28 10:46:04;;;;;;;7.03;3.60;;;25.50;58.20;;;;;;5011450;28;20058;-61
2021/05/28 10:48:38;;;;;;;12.13;3.75;;;25.90;58.10;;;;;;4996301;28;20374;-62
2021/05/28 10:51:08;;;;;;;12.13;3.47;;;25.60;58.60;;;;;;4999528;28;20025;-60
2021/05/28 10:53:35;;;;;;;10.07;4.10;;;25.80;57.00;;;;;;4981444;28;20030;-61
2021/05/28 10:56:09;;;;;;;8.90;3.55;;;25.30;56.80;;;;;;5003775;28;20538;-62
2021/05/28 10:58:54;;;;;;;14.90;3.65;;;24.70;58.50;;;;;;5004963;28;20631;-62
2021/05/28 11:01:34;;;;;;;10.25;3.92;;;24.10;62.00;;;;;;4998469;28;20037;-62
2021/05/28 11:04:04;;;;;;;10.57;3.72;;;24.10;59.70;;;;;;4987255;28;20030;-61
2021/05/28 11:06:31;;;;;;;4.60;3.00;;;23.50;59.90;;;;;;5004978;28;20028;-62
2021/05/28 11:09:06;;;;;;;9.02;3.63;;;22.90;62.70;;;;;;4996689;28;20399;-61
2021/05/28 11:11:43;;;;;;;4.95;3.10;;;23.00;61.50;;;;;;4995075;28;20501;-61
2021/05/28 11:14:14;;;;;;;5.47;3.05;;;22.70;63.10;;;;;;4984117;28;20022;-62
2021/05/28 11:16:48;;;;;;;5.85;3.50;;;23.30;63.20;;;;;;4993853;28;20464;-61
2021/05/28 11:19:32;;;;;;;7.00;3.03;;;22.80;62.60;;;;;;5003887;28;20045;-61
2021/05/28 11:22:05;;;;;;;5.90;3.10;;;22.30;63.10;;;;;;5014143;28;20805;-61
2021/05/28 11:24:48;;;;;;;5.80;3.33;;;22.70;64.20;;;;;;5017817;28;20057;-62
2021/05/28 11:27:14;;;;;;;;;;;22.40;64.20;;;;;;4976266;28;20453;-62
2021/05/28 11:29:41;;;;;;;6.00;3.40;;;22.70;64.70;;;;;;4994327;28;19913;-61
2021/05/28 11:32:29;;;;;;;4.85;2.83;;;23.20;63.00;;;;;;5005843;28;20053;-62
2021/05/28 11:35:28;;;;;;;9.50;3.38;;;22.30;63.10;;;;;;4999041;28;20470;-61
2021/05/28 11:38:02;;;;;;;9.30;3.67;;;21.70;65.10;;;;;;4985197;28;20478;-61
2021/05/28 11:40:37;;;;;;;5.18;2.60;;;22.10;64.50;;;;;;5021707;28;20434;-61
2021/05/28 11:43:10;;;;;;;9.43;4.10;;;22.20;65.40;;;;;;5006490;28;20033;-62
2021/05/28 11:45:41;;;;;;;7.15;3.00;;;22.70;64.30;;;;;;4993445;28;20382;-62
2021/05/28 11:48:11;;;;;;;6.40;2.60;;;23.00;63.10;;;;;;5021668;28;20022;-62
2021/05/28 11:50:40;;;;;;;8.35;3.55;;;23.20;60.10;;;;;;5008851;28;20024;-62
2021/05/28 11:53:11;;;;;;;7.03;3.63;;;23.10;60.40;;;;;;5020354;28;20530;-64
2021/05/28 11:55:51;;;;;;;8.90;3.95;;;22.80;62.10;;;;;;5008775;28;20041;-61
2021/05/28 11:58:18;;;;;;;8.77;3.97;;;22.10;63.50;;;;;;5008780;28;20572;-63
2021/05/28 12:00:46;;;;;;;10.10;3.97;;;23.00;62.70;;;;;;5003464;28;20060;-63
2021/05/28 12:03:12;;;;;;;9.75;4.03;;;24.00;61.40;;;;;;5008560;28;20053;-62
2021/05/28 12:05:46;;;;;;;8.35;3.70;;;24.40;59.20;;;;;;5020720;28;20026;-63
2021/05/28 12:08:11;;;;;;;6.28;3.88;;;24.70;61.10;;;;;;5008864;28;20021;-63
2021/05/28 12:10:42;;;;;;;10.35;3.90;;;25.10;59.00;;;;;;5010296;28;20026;-63
2021/05/28 12:13:15;;;;;;;12.25;4.00;;;24.90;56.90;;;;;;5023269;28;20026;-62
2021/05/28 12:15:49;;;;;;;7.20;3.70;;;24.60;59.20;;;;;;5010461;28;20038;-62
2021/05/28 12:18:18;;;;;;;7.97;3.85;;;23.90;59.20;;;;;;4997002;28;20414;-63
2021/05/28 12:21:08;;;;;;;7.85;3.85;;;24.00;58.80;;;;;;5008450;28;20037;-62
2021/05/28 12:23:42;;;;;;;10.40;3.60;;;23.50;58.20;;;;;;5008001;28;20065;-62
2021/05/28 12:26:14;;;;;;;7.70;3.30;;;22.90;60.40;;;;;;4999802;28;20116;-63
2021/05/28 12:28:41;;;;;;;10.63;3.92;;;22.90;61.30;;;;;;5000533;28;20036;-62
2021/05/28 12:31:16;;;;;;;6.22;3.58;;;23.20;59.90;;;;;;5019819;28;20030;-62
2021/05/28 12:33:57;;;;;;;6.82;4.47;;;22.90;61.90;;;;;;5006932;28;20113;-60
2021/05/28 12:36:30;;;;;;;9.45;4.07;;;22.00;62.50;;;;;;5001431;28;20092;-61
2021/05/28 12:38:56;;;;;;;10.88;4.45;;;21.90;63.10;;;;;;5009146;28;20079;-61
2021/05/28 12:41:27;;;;;;;10.07;4.47;;;22.00;64.70;;;;;;5009388;28;20034;-61
2021/05/28 12:43:54;;;;;;;9.40;4.13;;;22.10;65.00;;;;;;5005449;28;20030;-61
2021/05/28 12:46:24;;;;;;;6.63;4.38;;;22.20;64.10;;;;;;5011458;28;20049;-61